sensor_id;sensor_type;location;lat;lon;timestamp;P1;durP1;ratioP1;P2;durP2;ratioP2
4272;SDS011;63887;53.656;9.810;2023-03-31T00:01:35;32.93;;;10.90;;
4272;SDS011;63887;53.656;9.810;2023-03-31T00:04:07;32.70;;;9.77;;
4272;SDS011;63887;53.656;9.810;2023-03-31T00:06:34;32.53;;;10.57;;
4272;SDS011;63887;53.656;9.810;2023-03-31T00:09:03;28.57;;;11.10;;
4272;SDS011;63887;53.656;9.810;2023-03-31T00:11:30;34.77;;;11.27;;
4272;SDS011;63887;53.656;9.810;2023-03-31T00:13:56;33.50;;;10.53;;
4272;SDS011;63887;53.656;9.810;2023-03-31T00:16:23;50.37;;;10.97;;
4272;SDS011;63887;53.656;9.810;2023-03-31T00:18:50;46.13;;;11.70;;
4272;SDS011;63887;53.656;9.810;2023-03-31T00:21:19;29.03;;;10.70;;
4272;SDS011;63887;53.656;9.810;2023-03-31T00:23:53;28.00;;;10.37;;
4272;SDS011;63887;53.656;9.810;2023-03-31T00:26:21;29.80;;;11.60;;
4272;SDS011;63887;53.656;9.810;2023-03-31T00:28:47;38.20;;;12.00;;
4272;SDS011;63887;53.656;9.810;2023-03-31T00:31:14;40.83;;;9.70;;
4272;SDS011;63887;53.656;9.810;2023-03-31T00:33:41;30.87;;;10.70;;
4272;SDS011;63887;53.656;9.810;2023-03-31T00:36:07;49.77;;;11.70;;
4272;SDS011;63887;53.656;9.810;2023-03-31T00:38:35;33.90;;;9.70;;
4272;SDS011;63887;53.656;9.810;2023-03-31T00:41:02;30.17;;;12.30;;
4272;SDS011;63887;53.656;9.810;2023-03-31T00:43:31;25.37;;;10.20;;
4272;SDS011;63887;53.656;9.810;2023-03-31T00:46:01;25.07;;;9.23;;
4272;SDS011;63887;53.656;9.810;2023-03-31T00:48:32;38.90;;;10.73;;
4272;SDS011;63887;53.656;9.810;2023-03-31T00:51:02;32.83;;;9.80;;
4272;SDS011;63887;53.656;9.810;2023-03-31T00:53:31;27.17;;;9.50;;
4272;SDS011;63887;53.656;9.810;2023-03-31T00:56:02;19.30;;;10.20;;
4272;SDS011;63887;53.656;9.810;2023-03-31T00:58:34;31.13;;;8.93;;
4272;SDS011;63887;53.656;9.810;2023-03-31T01:01:07;35.53;;;9.57;;
4272;SDS011;63887;53.656;9.810;2023-03-31T01:03:38;33.73;;;9.40;;
4272;SDS011;63887;53.656;9.810;2023-03-31T01:06:06;50.13;;;10.27;;
4272;SDS011;63887;53.656;9.810;2023-03-31T01:08:34;28.13;;;9.83;;
4272;SDS011;63887;53.656;9.810;2023-03-31T01:11:04;27.40;;;10.20;;
4272;SDS011;63887;53.656;9.810;2023-03-31T01:13:33;26.67;;;10.27;;
4272;SDS011;63887;53.656;9.810;2023-03-31T01:16:01;39.90;;;10.00;;
4272;SDS011;63887;53.656;9.810;2023-03-31T01:18:28;17.83;;;8.87;;
4272;SDS011;63887;53.656;9.810;2023-03-31T01:21:10;37.60;;;11.03;;
4272;SDS011;63887;53.656;9.810;2023-03-31T01:24:23;34.00;;;10.37;;
4272;SDS011;63887;53.656;9.810;2023-03-31T01:27:09;20.67;;;9.00;;
4272;SDS011;63887;53.656;9.810;2023-03-31T01:30:10;30.80;;;9.63;;
4272;SDS011;63887;53.656;9.810;2023-03-31T01:33:00;14.93;;;8.43;;
4272;SDS011;63887;53.656;9.810;2023-03-31T01:35:52;36.87;;;8.87;;
4272;SDS011;63887;53.656;9.810;2023-03-31T01:38:54;25.90;;;8.90;;
4272;SDS011;63887;53.656;9.810;2023-03-31T01:41:43;30.83;;;9.87;;
4272;SDS011;63887;53.656;9.810;2023-03-31T01:44:19;26.33;;;8.90;;
4272;SDS011;63887;53.656;9.810;2023-03-31T01:46:55;17.20;;;8.23;;
4272;SDS011;63887;53.656;9.810;2023-03-31T01:49:28;36.23;;;10.33;;
4272;SDS011;63887;53.656;9.810;2023-03-31T01:52:05;23.03;;;9.03;;
4272;SDS011;63887;53.656;9.810;2023-03-31T01:54:43;19.47;;;9.53;;
4272;SDS011;63887;53.656;9.810;2023-03-31T01:57:16;28.07;;;9.03;;
4272;SDS011;63887;53.656;9.810;2023-03-31T01:59:48;25.80;;;9.13;;
4272;SDS011;63887;53.656;9.810;2023-03-31T02:02:23;18.90;;;9.70;;
4272;SDS011;63887;53.656;9.810;2023-03-31T02:04:54;32.80;;;8.90;;
4272;SDS011;63887;53.656;9.810;2023-03-31T02:07:23;27.17;;;8.47;;
4272;SDS011;63887;53.656;9.810;2023-03-31T02:09:55;32.63;;;11.40;;
4272;SDS011;63887;53.656;9.810;2023-03-31T02:12:26;31.87;;;9.47;;
4272;SDS011;63887;53.656;9.810;2023-03-31T02:14:56;21.50;;;9.60;;
4272;SDS011;63887;53.656;9.810;2023-03-31T02:17:25;47.00;;;9.73;;
4272;SDS011;63887;53.656;9.810;2023-03-31T02:19:54;37.23;;;9.37;;
4272;SDS011;63887;53.656;9.810;2023-03-31T02:22:23;29.93;;;8.90;;
4272;SDS011;63887;53.656;9.810;2023-03-31T02:24:52;20.97;;;9.60;;
4272;SDS011;63887;53.656;9.810;2023-03-31T02:27:21;23.17;;;8.93;;
4272;SDS011;63887;53.656;9.810;2023-03-31T02:29:51;16.13;;;8.70;;
4272;SDS011;63887;53.656;9.810;2023-03-31T02:32:20;13.53;;;7.60;;
4272;SDS011;63887;53.656;9.810;2023-03-31T02:34:49;16.53;;;8.37;;
4272;SDS011;63887;53.656;9.810;2023-03-31T02:37:16;9.30;;;8.30;;
4272;SDS011;63887;53.656;9.810;2023-03-31T02:39:43;20.93;;;8.80;;
4272;SDS011;63887;53.656;9.810;2023-03-31T02:42:12;14.63;;;7.27;;
4272;SDS011;63887;53.656;9.810;2023-03-31T02:44:39;19.83;;;8.57;;
4272;SDS011;63887;53.656;9.810;2023-03-31T02:47:07;17.17;;;9.10;;
4272;SDS011;63887;53.656;9.810;2023-03-31T02:49:36;22.83;;;8.67;;
4272;SDS011;63887;53.656;9.810;2023-03-31T02:52:10;29.47;;;9.50;;
4272;SDS011;63887;53.656;9.810;2023-03-31T02:54:56;28.97;;;10.77;;
4272;SDS011;63887;53.656;9.810;2023-03-31T02:57:39;37.33;;;9.10;;
4272;SDS011;63887;53.656;9.810;2023-03-31T03:00:26;22.70;;;9.60;;
4272;SDS011;63887;53.656;9.810;2023-03-31T03:03:11;28.47;;;10.00;;
4272;SDS011;63887;53.656;9.810;2023-03-31T03:05:47;32.17;;;10.90;;
4272;SDS011;63887;53.656;9.810;2023-03-31T03:08:21;31.30;;;10.53;;
4272;SDS011;63887;53.656;9.810;2023-03-31T03:10:57;27.73;;;9.40;;
4272;SDS011;63887;53.656;9.810;2023-03-31T03:13:34;44.27;;;10.33;;
4272;SDS011;63887;53.656;9.810;2023-03-31T03:16:07;29.63;;;10.13;;
4272;SDS011;63887;53.656;9.810;2023-03-31T03:18:39;29.70;;;10.87;;
4272;SDS011;63887;53.656;9.810;2023-03-31T03:21:05;16.90;;;10.67;;
4272;SDS011;63887;53.656;9.810;2023-03-31T03:23:32;18.43;;;10.40;;
4272;SDS011;63887;53.656;9.810;2023-03-31T03:25:58;29.53;;;9.43;;
4272;SDS011;63887;53.656;9.810;2023-03-31T03:28:25;26.03;;;9.60;;
4272;SDS011;63887;53.656;9.810;2023-03-31T03:30:51;17.00;;;10.17;;
4272;SDS011;63887;53.656;9.810;2023-03-31T03:33:18;29.70;;;10.00;;
4272;SDS011;63887;53.656;9.810;2023-03-31T03:35:50;17.03;;;10.10;;
4272;SDS011;63887;53.656;9.810;2023-03-31T03:38:16;25.00;;;10.40;;
4272;SDS011;63887;53.656;9.810;2023-03-31T03:40:43;24.10;;;11.73;;
4272;SDS011;63887;53.656;9.810;2023-03-31T03:43:09;32.57;;;11.00;;
4272;SDS011;63887;53.656;9.810;2023-03-31T03:45:36;19.80;;;11.40;;
4272;SDS011;63887;53.656;9.810;2023-03-31T03:48:02;22.50;;;11.60;;
4272;SDS011;63887;53.656;9.810;2023-03-31T03:50:28;42.43;;;11.40;;
4272;SDS011;63887;53.656;9.810;2023-03-31T03:52:56;33.90;;;11.30;;
4272;SDS011;63887;53.656;9.810;2023-03-31T03:55:23;21.60;;;10.57;;
4272;SDS011;63887;53.656;9.810;2023-03-31T03:57:49;29.93;;;12.17;;
4272;SDS011;63887;53.656;9.810;2023-03-31T04:00:16;23.40;;;10.60;;
4272;SDS011;63887;53.656;9.810;2023-03-31T04:02:43;33.70;;;11.83;;
4272;SDS011;63887;53.656;9.810;2023-03-31T04:05:09;29.73;;;11.77;;
4272;SDS011;63887;53.656;9.810;2023-03-31T04:07:36;28.10;;;12.50;;
4272;SDS011;63887;53.656;9.810;2023-03-31T04:10:04;40.97;;;11.87;;
4272;SDS011;63887;53.656;9.810;2023-03-31T04:12:32;31.07;;;12.03;;
4272;SDS011;63887;53.656;9.810;2023-03-31T04:14:59;20.83;;;12.03;;
4272;SDS011;63887;53.656;9.810;2023-03-31T04:17:25;27.13;;;12.73;;
4272;SDS011;63887;53.656;9.810;2023-03-31T04:19:58;21.17;;;12.50;;
4272;SDS011;63887;53.656;9.810;2023-03-31T04:22:29;19.23;;;12.13;;
4272;SDS011;63887;53.656;9.810;2023-03-31T04:24:59;18.63;;;11.67;;
4272;SDS011;63887;53.656;9.810;2023-03-31T04:27:28;25.50;;;11.43;;
4272;SDS011;63887;53.656;9.810;2023-03-31T04:29:54;19.77;;;10.90;;
4272;SDS011;63887;53.656;9.810;2023-03-31T04:32:21;21.97;;;10.93;;
4272;SDS011;63887;53.656;9.810;2023-03-31T04:34:48;28.80;;;11.53;;
4272;SDS011;63887;53.656;9.810;2023-03-31T04:37:15;18.53;;;11.27;;
4272;SDS011;63887;53.656;9.810;2023-03-31T04:39:42;32.87;;;10.87;;
4272;SDS011;63887;53.656;9.810;2023-03-31T04:42:11;17.43;;;11.77;;
4272;SDS011;63887;53.656;9.810;2023-03-31T04:44:39;17.67;;;12.17;;
4272;SDS011;63887;53.656;9.810;2023-03-31T04:47:05;23.20;;;12.67;;
4272;SDS011;63887;53.656;9.810;2023-03-31T04:49:31;19.63;;;12.43;;
4272;SDS011;63887;53.656;9.810;2023-03-31T04:51:59;15.30;;;11.93;;
4272;SDS011;63887;53.656;9.810;2023-03-31T04:54:26;28.80;;;12.13;;
4272;SDS011;63887;53.656;9.810;2023-03-31T04:56:52;20.17;;;11.77;;
4272;SDS011;63887;53.656;9.810;2023-03-31T04:59:19;30.33;;;13.03;;
4272;SDS011;63887;53.656;9.810;2023-03-31T05:01:47;22.03;;;12.13;;
4272;SDS011;63887;53.656;9.810;2023-03-31T05:04:13;15.63;;;12.40;;
4272;SDS011;63887;53.656;9.810;2023-03-31T05:06:40;20.10;;;11.93;;
4272;SDS011;63887;53.656;9.810;2023-03-31T05:09:06;24.70;;;12.23;;
4272;SDS011;63887;53.656;9.810;2023-03-31T05:11:33;14.00;;;12.53;;
4272;SDS011;63887;53.656;9.810;2023-03-31T05:14:00;24.47;;;13.50;;
4272;SDS011;63887;53.656;9.810;2023-03-31T05:16:27;24.23;;;12.00;;
4272;SDS011;63887;53.656;9.810;2023-03-31T05:18:54;19.77;;;13.43;;
4272;SDS011;63887;53.656;9.810;2023-03-31T05:21:21;28.03;;;12.67;;
4272;SDS011;63887;53.656;9.810;2023-03-31T05:23:47;24.67;;;11.97;;
4272;SDS011;63887;53.656;9.810;2023-03-31T05:26:15;28.60;;;13.80;;
4272;SDS011;63887;53.656;9.810;2023-03-31T05:28:41;25.07;;;13.07;;
4272;SDS011;63887;53.656;9.810;2023-03-31T05:31:08;30.50;;;13.60;;
4272;SDS011;63887;53.656;9.810;2023-03-31T05:33:36;21.50;;;11.80;;
4272;SDS011;63887;53.656;9.810;2023-03-31T05:36:07;19.17;;;12.43;;
4272;SDS011;63887;53.656;9.810;2023-03-31T05:38:34;37.63;;;13.67;;
4272;SDS011;63887;53.656;9.810;2023-03-31T05:41:00;24.97;;;13.37;;
4272;SDS011;63887;53.656;9.810;2023-03-31T05:43:27;23.23;;;13.40;;
4272;SDS011;63887;53.656;9.810;2023-03-31T05:45:53;29.53;;;12.93;;
4272;SDS011;63887;53.656;9.810;2023-03-31T05:48:20;21.90;;;12.77;;
4272;SDS011;63887;53.656;9.810;2023-03-31T05:50:46;19.93;;;13.50;;
4272;SDS011;63887;53.656;9.810;2023-03-31T05:53:14;26.93;;;13.50;;
4272;SDS011;63887;53.656;9.810;2023-03-31T05:55:40;23.23;;;14.90;;
4272;SDS011;63887;53.656;9.810;2023-03-31T05:58:07;22.33;;;14.20;;
4272;SDS011;63887;53.656;9.810;2023-03-31T06:00:34;22.27;;;13.57;;
4272;SDS011;63887;53.656;9.810;2023-03-31T06:03:02;20.13;;;13.43;;
4272;SDS011;63887;53.656;9.810;2023-03-31T06:05:28;23.03;;;13.97;;
4272;SDS011;63887;53.656;9.810;2023-03-31T06:07:56;29.57;;;16.03;;
4272;SDS011;63887;53.656;9.810;2023-03-31T06:10:24;29.23;;;13.93;;
4272;SDS011;63887;53.656;9.810;2023-03-31T06:12:50;16.47;;;12.50;;
4272;SDS011;63887;53.656;9.810;2023-03-31T06:15:17;24.00;;;13.10;;
4272;SDS011;63887;53.656;9.810;2023-03-31T06:17:43;24.40;;;13.10;;
4272;SDS011;63887;53.656;9.810;2023-03-31T06:20:10;18.33;;;13.40;;
4272;SDS011;63887;53.656;9.810;2023-03-31T06:22:36;31.93;;;12.50;;
4272;SDS011;63887;53.656;9.810;2023-03-31T06:25:03;26.03;;;12.23;;
4272;SDS011;63887;53.656;9.810;2023-03-31T06:27:31;20.97;;;13.17;;
4272;SDS011;63887;53.656;9.810;2023-03-31T06:29:58;31.37;;;13.07;;
4272;SDS011;63887;53.656;9.810;2023-03-31T06:32:24;56.97;;;24.70;;
4272;SDS011;63887;53.656;9.810;2023-03-31T06:34:51;36.27;;;13.97;;
4272;SDS011;63887;53.656;9.810;2023-03-31T06:37:17;18.97;;;13.47;;
4272;SDS011;63887;53.656;9.810;2023-03-31T06:39:43;22.70;;;13.83;;
4272;SDS011;63887;53.656;9.810;2023-03-31T06:42:10;27.13;;;14.13;;
4272;SDS011;63887;53.656;9.810;2023-03-31T06:44:38;28.83;;;13.97;;
4272;SDS011;63887;53.656;9.810;2023-03-31T06:47:04;17.27;;;12.30;;
4272;SDS011;63887;53.656;9.810;2023-03-31T06:49:31;20.67;;;13.63;;
4272;SDS011;63887;53.656;9.810;2023-03-31T06:51:57;24.67;;;12.60;;
4272;SDS011;63887;53.656;9.810;2023-03-31T06:54:23;25.53;;;13.70;;
4272;SDS011;63887;53.656;9.810;2023-03-31T06:56:50;15.17;;;13.33;;
4272;SDS011;63887;53.656;9.810;2023-03-31T06:59:16;32.90;;;13.57;;
4272;SDS011;63887;53.656;9.810;2023-03-31T07:01:44;26.67;;;12.83;;
4272;SDS011;63887;53.656;9.810;2023-03-31T07:04:12;31.67;;;13.13;;
4272;SDS011;63887;53.656;9.810;2023-03-31T07:06:38;24.53;;;12.97;;
4272;SDS011;63887;53.656;9.810;2023-03-31T07:09:05;17.23;;;12.13;;
4272;SDS011;63887;53.656;9.810;2023-03-31T07:11:31;26.43;;;12.83;;
4272;SDS011;63887;53.656;9.810;2023-03-31T07:13:58;28.60;;;11.77;;
4272;SDS011;63887;53.656;9.810;2023-03-31T07:16:24;22.17;;;13.60;;
4272;SDS011;63887;53.656;9.810;2023-03-31T07:18:52;22.73;;;12.87;;
4272;SDS011;63887;53.656;9.810;2023-03-31T07:21:23;32.90;;;14.63;;
4272;SDS011;63887;53.656;9.810;2023-03-31T07:23:50;24.17;;;14.27;;
4272;SDS011;63887;53.656;9.810;2023-03-31T07:26:16;31.83;;;12.70;;
4272;SDS011;63887;53.656;9.810;2023-03-31T07:28:43;19.07;;;13.70;;
4272;SDS011;63887;53.656;9.810;2023-03-31T07:31:10;26.23;;;14.00;;
4272;SDS011;63887;53.656;9.810;2023-03-31T07:33:37;18.80;;;12.97;;
4272;SDS011;63887;53.656;9.810;2023-03-31T07:36:05;32.17;;;14.23;;
4272;SDS011;63887;53.656;9.810;2023-03-31T07:38:31;26.83;;;13.00;;
4272;SDS011;63887;53.656;9.810;2023-03-31T07:40:58;14.53;;;13.00;;
4272;SDS011;63887;53.656;9.810;2023-03-31T07:43:25;23.03;;;14.27;;
4272;SDS011;63887;53.656;9.810;2023-03-31T07:45:51;20.23;;;12.97;;
4272;SDS011;63887;53.656;9.810;2023-03-31T07:48:18;16.13;;;12.40;;
4272;SDS011;63887;53.656;9.810;2023-03-31T07:50:44;20.37;;;14.03;;
4272;SDS011;63887;53.656;9.810;2023-03-31T07:53:12;26.70;;;13.60;;
4272;SDS011;63887;53.656;9.810;2023-03-31T07:55:39;25.10;;;13.80;;
4272;SDS011;63887;53.656;9.810;2023-03-31T07:58:05;21.20;;;15.20;;
4272;SDS011;63887;53.656;9.810;2023-03-31T08:00:32;19.87;;;12.77;;
4272;SDS011;63887;53.656;9.810;2023-03-31T08:02:58;26.17;;;13.80;;
4272;SDS011;63887;53.656;9.810;2023-03-31T08:05:25;17.70;;;13.13;;
4272;SDS011;63887;53.656;9.810;2023-03-31T08:07:52;19.60;;;12.00;;
4272;SDS011;63887;53.656;9.810;2023-03-31T08:10:21;16.87;;;11.80;;
4272;SDS011;63887;53.656;9.810;2023-03-31T08:12:50;25.83;;;11.80;;
4272;SDS011;63887;53.656;9.810;2023-03-31T08:15:16;15.13;;;10.70;;
4272;SDS011;63887;53.656;9.810;2023-03-31T08:17:43;16.63;;;12.57;;
4272;SDS011;63887;53.656;9.810;2023-03-31T08:20:10;14.57;;;12.30;;
4272;SDS011;63887;53.656;9.810;2023-03-31T08:22:39;15.60;;;12.10;;
4272;SDS011;63887;53.656;9.810;2023-03-31T08:25:06;12.13;;;10.93;;
4272;SDS011;63887;53.656;9.810;2023-03-31T08:27:35;14.40;;;10.90;;
4272;SDS011;63887;53.656;9.810;2023-03-31T08:30:03;13.63;;;11.00;;
4272;SDS011;63887;53.656;9.810;2023-03-31T08:32:30;12.27;;;11.27;;
4272;SDS011;63887;53.656;9.810;2023-03-31T08:34:57;12.53;;;11.10;;
4272;SDS011;63887;53.656;9.810;2023-03-31T08:37:24;19.57;;;12.00;;
4272;SDS011;63887;53.656;9.810;2023-03-31T08:39:52;14.40;;;12.40;;
4272;SDS011;63887;53.656;9.810;2023-03-31T08:42:19;11.50;;;10.37;;
4272;SDS011;63887;53.656;9.810;2023-03-31T08:44:54;13.50;;;11.97;;
4272;SDS011;63887;53.656;9.810;2023-03-31T08:47:25;19.03;;;11.30;;
4272;SDS011;63887;53.656;9.810;2023-03-31T08:49:55;13.20;;;11.50;;
4272;SDS011;63887;53.656;9.810;2023-03-31T08:52:25;23.00;;;13.27;;
4272;SDS011;63887;53.656;9.810;2023-03-31T08:54:55;16.57;;;11.47;;
4272;SDS011;63887;53.656;9.810;2023-03-31T08:57:25;14.73;;;11.67;;
4272;SDS011;63887;53.656;9.810;2023-03-31T08:59:58;21.00;;;11.63;;
4272;SDS011;63887;53.656;9.810;2023-03-31T09:02:31;13.93;;;10.97;;
4272;SDS011;63887;53.656;9.810;2023-03-31T09:05:22;17.90;;;10.60;;
4272;SDS011;63887;53.656;9.810;2023-03-31T09:08:02;11.93;;;10.80;;
4272;SDS011;63887;53.656;9.810;2023-03-31T09:10:38;12.13;;;10.10;;
4272;SDS011;63887;53.656;9.810;2023-03-31T09:16:09;10.93;;;9.73;;
4272;SDS011;63887;53.656;9.810;2023-03-31T09:18:38;10.57;;;9.67;;
4272;SDS011;63887;53.656;9.810;2023-03-31T09:21:11;11.10;;;8.70;;
4272;SDS011;63887;53.656;9.810;2023-03-31T09:23:43;14.43;;;9.57;;
4272;SDS011;63887;53.656;9.810;2023-03-31T09:26:19;10.93;;;9.97;;
4272;SDS011;63887;53.656;9.810;2023-03-31T09:28:48;10.07;;;9.47;;
4272;SDS011;63887;53.656;9.810;2023-03-31T09:31:19;14.83;;;9.50;;
4272;SDS011;63887;53.656;9.810;2023-03-31T09:33:47;10.27;;;9.67;;
4272;SDS011;63887;53.656;9.810;2023-03-31T09:36:18;9.90;;;8.83;;
4272;SDS011;63887;53.656;9.810;2023-03-31T09:38:46;11.37;;;10.37;;
4272;SDS011;63887;53.656;9.810;2023-03-31T09:41:14;9.77;;;9.17;;
4272;SDS011;63887;53.656;9.810;2023-03-31T09:43:43;10.37;;;9.40;;
4272;SDS011;63887;53.656;9.810;2023-03-31T09:46:13;9.70;;;9.00;;
4272;SDS011;63887;53.656;9.810;2023-03-31T09:48:47;12.63;;;9.57;;
4272;SDS011;63887;53.656;9.810;2023-03-31T09:51:18;8.87;;;8.17;;
4272;SDS011;63887;53.656;9.810;2023-03-31T09:53:49;9.17;;;8.50;;
4272;SDS011;63887;53.656;9.810;2023-03-31T09:56:31;13.20;;;8.60;;
4272;SDS011;63887;53.656;9.810;2023-03-31T09:59:00;9.13;;;8.30;;
4272;SDS011;63887;53.656;9.810;2023-03-31T10:01:27;8.57;;;7.97;;
4272;SDS011;63887;53.656;9.810;2023-03-31T10:03:56;8.17;;;7.63;;
4272;SDS011;63887;53.656;9.810;2023-03-31T10:06:22;8.03;;;7.50;;
4272;SDS011;63887;53.656;9.810;2023-03-31T10:08:50;10.00;;;8.00;;
4272;SDS011;63887;53.656;9.810;2023-03-31T10:11:20;8.70;;;8.00;;
4272;SDS011;63887;53.656;9.810;2023-03-31T10:13:48;9.93;;;9.10;;
4272;SDS011;63887;53.656;9.810;2023-03-31T10:16:20;8.47;;;8.00;;
4272;SDS011;63887;53.656;9.810;2023-03-31T10:18:48;8.80;;;8.27;;
4272;SDS011;63887;53.656;9.810;2023-03-31T10:21:18;13.53;;;8.57;;
4272;SDS011;63887;53.656;9.810;2023-03-31T10:23:47;10.00;;;9.03;;
4272;SDS011;63887;53.656;9.810;2023-03-31T10:26:16;8.70;;;8.20;;
4272;SDS011;63887;53.656;9.810;2023-03-31T10:28:45;9.47;;;8.70;;
4272;SDS011;63887;53.656;9.810;2023-03-31T10:31:14;9.27;;;8.67;;
4272;SDS011;63887;53.656;9.810;2023-03-31T10:33:42;11.43;;;9.00;;
4272;SDS011;63887;53.656;9.810;2023-03-31T10:36:14;8.80;;;8.13;;
4272;SDS011;63887;53.656;9.810;2023-03-31T10:38:47;9.23;;;8.53;;
4272;SDS011;63887;53.656;9.810;2023-03-31T10:41:16;11.50;;;8.80;;
4272;SDS011;63887;53.656;9.810;2023-03-31T10:43:47;9.83;;;9.00;;
4272;SDS011;63887;53.656;9.810;2023-03-31T10:46:15;8.60;;;8.10;;
4272;SDS011;63887;53.656;9.810;2023-03-31T10:48:42;8.93;;;7.50;;
4272;SDS011;63887;53.656;9.810;2023-03-31T10:51:11;8.67;;;8.17;;
4272;SDS011;63887;53.656;9.810;2023-03-31T10:53:43;7.87;;;7.43;;
4272;SDS011;63887;53.656;9.810;2023-03-31T10:56:14;8.70;;;8.20;;
4272;SDS011;63887;53.656;9.810;2023-03-31T10:58:59;7.90;;;7.23;;
4272;SDS011;63887;53.656;9.810;2023-03-31T11:01:38;9.20;;;8.10;;
4272;SDS011;63887;53.656;9.810;2023-03-31T11:04:40;8.17;;;7.40;;
4272;SDS011;63887;53.656;9.810;2023-03-31T11:07:16;12.13;;;8.20;;
4272;SDS011;63887;53.656;9.810;2023-03-31T11:09:57;8.63;;;8.20;;
4272;SDS011;63887;53.656;9.810;2023-03-31T11:12:34;8.90;;;7.80;;
4272;SDS011;63887;53.656;9.810;2023-03-31T11:15:11;7.97;;;7.57;;
4272;SDS011;63887;53.656;9.810;2023-03-31T11:17:48;9.40;;;8.70;;
4272;SDS011;63887;53.656;9.810;2023-03-31T11:20:30;9.03;;;8.17;;
4272;SDS011;63887;53.656;9.810;2023-03-31T11:23:03;8.77;;;8.17;;
4272;SDS011;63887;53.656;9.810;2023-03-31T11:25:44;8.90;;;8.40;;
4272;SDS011;63887;53.656;9.810;2023-03-31T11:28:25;11.27;;;8.60;;
4272;SDS011;63887;53.656;9.810;2023-03-31T11:31:02;8.70;;;8.20;;
4272;SDS011;63887;53.656;9.810;2023-03-31T11:33:47;9.47;;;8.10;;
4272;SDS011;63887;53.656;9.810;2023-03-31T11:36:31;13.83;;;8.70;;
4272;SDS011;63887;53.656;9.810;2023-03-31T11:39:17;8.10;;;7.50;;
4272;SDS011;63887;53.656;9.810;2023-03-31T11:41:56;7.93;;;7.43;;
4272;SDS011;63887;53.656;9.810;2023-03-31T11:44:26;8.80;;;8.10;;
4272;SDS011;63887;53.656;9.810;2023-03-31T11:47:01;7.57;;;7.00;;
4272;SDS011;63887;53.656;9.810;2023-03-31T11:49:31;10.63;;;7.77;;
4272;SDS011;63887;53.656;9.810;2023-03-31T11:52:05;7.60;;;6.90;;
4272;SDS011;63887;53.656;9.810;2023-03-31T11:54:35;8.83;;;7.30;;
4272;SDS011;63887;53.656;9.810;2023-03-31T11:57:09;7.37;;;6.90;;
4272;SDS011;63887;53.656;9.810;2023-03-31T11:59:41;6.80;;;6.50;;
4272;SDS011;63887;53.656;9.810;2023-03-31T12:02:14;7.40;;;6.90;;
4272;SDS011;63887;53.656;9.810;2023-03-31T12:04:44;7.50;;;6.93;;
4272;SDS011;63887;53.656;9.810;2023-03-31T12:07:19;7.30;;;6.93;;
4272;SDS011;63887;53.656;9.810;2023-03-31T12:09:50;7.23;;;6.83;;
4272;SDS011;63887;53.656;9.810;2023-03-31T12:12:28;8.20;;;7.37;;
4272;SDS011;63887;53.656;9.810;2023-03-31T12:14:59;8.70;;;6.17;;
4272;SDS011;63887;53.656;9.810;2023-03-31T12:17:31;6.13;;;5.80;;
4272;SDS011;63887;53.656;9.810;2023-03-31T12:20:02;7.00;;;6.50;;
4272;SDS011;63887;53.656;9.810;2023-03-31T12:22:35;6.43;;;5.83;;
4272;SDS011;63887;53.656;9.810;2023-03-31T12:25:07;5.67;;;5.47;;
4272;SDS011;63887;53.656;9.810;2023-03-31T12:27:39;6.43;;;6.13;;
4272;SDS011;63887;53.656;9.810;2023-03-31T12:30:08;6.77;;;6.43;;
4272;SDS011;63887;53.656;9.810;2023-03-31T12:32:37;6.63;;;6.33;;
4272;SDS011;63887;53.656;9.810;2023-03-31T12:35:09;6.80;;;6.47;;
4272;SDS011;63887;53.656;9.810;2023-03-31T12:37:52;6.20;;;5.90;;
4272;SDS011;63887;53.656;9.810;2023-03-31T12:40:31;6.50;;;6.00;;
4272;SDS011;63887;53.656;9.810;2023-03-31T12:43:19;6.10;;;5.63;;
4272;SDS011;63887;53.656;9.810;2023-03-31T12:46:08;6.10;;;5.67;;
4272;SDS011;63887;53.656;9.810;2023-03-31T12:48:52;7.53;;;7.23;;
4272;SDS011;63887;53.656;9.810;2023-03-31T12:51:30;6.73;;;6.40;;
4272;SDS011;63887;53.656;9.810;2023-03-31T12:54:13;9.23;;;7.57;;
4272;SDS011;63887;53.656;9.810;2023-03-31T12:57:02;9.53;;;7.80;;
4272;SDS011;63887;53.656;9.810;2023-03-31T13:00:07;7.27;;;6.83;;
4272;SDS011;63887;53.656;9.810;2023-03-31T13:02:44;9.00;;;8.33;;
4272;SDS011;63887;53.656;9.810;2023-03-31T13:08:47;9.80;;;7.37;;
4272;SDS011;63887;53.656;9.810;2023-03-31T13:11:19;8.10;;;7.70;;
4272;SDS011;63887;53.656;9.810;2023-03-31T13:13:52;13.73;;;8.63;;
4272;SDS011;63887;53.656;9.810;2023-03-31T13:16:26;7.67;;;6.90;;
4272;SDS011;63887;53.656;9.810;2023-03-31T13:18:54;9.70;;;8.77;;
4272;SDS011;63887;53.656;9.810;2023-03-31T13:21:21;13.67;;;7.97;;
4272;SDS011;63887;53.656;9.810;2023-03-31T13:23:48;8.20;;;7.67;;
4272;SDS011;63887;53.656;9.810;2023-03-31T13:26:34;9.10;;;8.50;;
4272;SDS011;63887;53.656;9.810;2023-03-31T13:29:09;9.27;;;8.40;;
4272;SDS011;63887;53.656;9.810;2023-03-31T13:34:46;9.70;;;8.77;;
4272;SDS011;63887;53.656;9.810;2023-03-31T13:37:18;9.70;;;9.10;;
4272;SDS011;63887;53.656;9.810;2023-03-31T13:39:59;8.67;;;7.87;;
4272;SDS011;63887;53.656;9.810;2023-03-31T13:42:44;9.70;;;8.70;;
4272;SDS011;63887;53.656;9.810;2023-03-31T13:45:37;10.43;;;8.30;;
4272;SDS011;63887;53.656;9.810;2023-03-31T13:48:23;9.03;;;8.33;;
4272;SDS011;63887;53.656;9.810;2023-03-31T13:51:06;12.57;;;7.90;;
4272;SDS011;63887;53.656;9.810;2023-03-31T13:53:56;8.97;;;8.40;;
4272;SDS011;63887;53.656;9.810;2023-03-31T13:56:47;28.50;;;8.30;;
4272;SDS011;63887;53.656;9.810;2023-03-31T13:59:35;8.40;;;7.93;;
4272;SDS011;63887;53.656;9.810;2023-03-31T14:02:19;8.27;;;7.77;;
4272;SDS011;63887;53.656;9.810;2023-03-31T14:05:07;9.60;;;8.90;;
4272;SDS011;63887;53.656;9.810;2023-03-31T14:07:45;8.10;;;7.80;;
4272;SDS011;63887;53.656;9.810;2023-03-31T14:10:22;7.87;;;7.47;;
4272;SDS011;63887;53.656;9.810;2023-03-31T14:12:51;9.07;;;8.30;;
4272;SDS011;63887;53.656;9.810;2023-03-31T14:15:28;8.37;;;7.50;;
4272;SDS011;63887;53.656;9.810;2023-03-31T14:17:55;9.37;;;8.53;;
4272;SDS011;63887;53.656;9.810;2023-03-31T14:20:26;7.83;;;7.53;;
4272;SDS011;63887;53.656;9.810;2023-03-31T14:23:03;7.00;;;6.70;;
4272;SDS011;63887;53.656;9.810;2023-03-31T14:25:44;7.50;;;6.87;;
4272;SDS011;63887;53.656;9.810;2023-03-31T14:28:24;7.70;;;7.00;;
4272;SDS011;63887;53.656;9.810;2023-03-31T14:31:07;7.47;;;7.13;;
4272;SDS011;63887;53.656;9.810;2023-03-31T14:33:45;7.30;;;7.00;;
4272;SDS011;63887;53.656;9.810;2023-03-31T14:36:21;6.93;;;6.63;;
4272;SDS011;63887;53.656;9.810;2023-03-31T14:38:54;7.07;;;6.87;;
4272;SDS011;63887;53.656;9.810;2023-03-31T14:41:27;7.60;;;7.20;;
4272;SDS011;63887;53.656;9.810;2023-03-31T14:43:55;7.77;;;7.20;;
4272;SDS011;63887;53.656;9.810;2023-03-31T14:46:25;5.90;;;5.70;;
4272;SDS011;63887;53.656;9.810;2023-03-31T14:48:55;7.37;;;6.90;;
4272;SDS011;63887;53.656;9.810;2023-03-31T14:51:25;7.23;;;6.73;;
4272;SDS011;63887;53.656;9.810;2023-03-31T14:53:56;7.20;;;6.60;;
4272;SDS011;63887;53.656;9.810;2023-03-31T14:56:25;6.13;;;6.03;;
4272;SDS011;63887;53.656;9.810;2023-03-31T14:58:57;7.17;;;6.57;;
4272;SDS011;63887;53.656;9.810;2023-03-31T15:01:27;8.53;;;8.10;;
4272;SDS011;63887;53.656;9.810;2023-03-31T15:03:58;7.90;;;7.20;;
4272;SDS011;63887;53.656;9.810;2023-03-31T15:06:27;7.77;;;5.87;;
4272;SDS011;63887;53.656;9.810;2023-03-31T15:08:57;7.60;;;7.07;;
4272;SDS011;63887;53.656;9.810;2023-03-31T15:11:26;7.50;;;7.10;;
4272;SDS011;63887;53.656;9.810;2023-03-31T15:13:53;8.20;;;7.63;;
4272;SDS011;63887;53.656;9.810;2023-03-31T15:16:27;6.80;;;6.70;;
4272;SDS011;63887;53.656;9.810;2023-03-31T15:18:57;7.77;;;7.37;;
4272;SDS011;63887;53.656;9.810;2023-03-31T15:21:27;10.07;;;7.53;;